Time;durP1;ratioP1;P1;durP2;ratioP2;P2;SDS_P1;SDS_P2;PMS_P1;PMS_P2;Temp;Humidity;BMP_temperature;BMP_pressure;BME280_temperature;BME280_humidity;BME280_pressure;Samples;Min_cycle;Max_cycle;Signal;HPM_P1;HPM_P2
2023/01/01 05:02:30;;;;;;;4.53;2.10;;;;;;;19.36;62.15;96638.13;23520791;23;20240;-56
2023/01/01 05:12:31;;;;;;;2.73;2.37;;;;;;;19.35;62.35;96641.94;20152231;29;20209;-56
2023/01/01 05:22:30;;;;;;;2.33;2.10;;;;;;;19.34;62.09;96651.97;20132975;29;20225;-56
2023/01/01 05:32:28;;;;;;;2.27;1.83;;;;;;;19.34;61.84;96654.69;20149033;29;20243;-56
2023/01/01 05:42:27;;;;;;;2.80;2.03;;;;;;;19.34;62.51;96657.38;20132337;29;20243;-56
2023/01/01 05:52:25;;;;;;;2.23;1.83;;;;;;;19.34;62.41;96657.38;20148416;29;20217;-57
2023/01/01 06:02:25;;;;;;;2.97;2.10;;;;;;;19.33;62.50;96663.88;20161637;29;20235;-56
2023/01/01 06:12:25;;;;;;;3.13;2.10;;;;;;;19.34;62.20;96678.22;20145187;29;20288;-56
2023/01/01 06:22:24;;;;;;;2.90;1.80;;;;;;;19.33;61.87;96682.84;20160726;29;20408;-55
2023/01/01 06:32:22;;;;;;;3.30;1.90;;;;;;;19.33;62.20;96685.53;20160022;29;20212;-55
2023/01/01 06:42:22;;;;;;;2.77;1.97;;;;;;;19.32;62.35;96692.06;20159310;29;20221;-56
2023/01/01 06:52:24;;;;;;;4.03;2.20;;;;;;;19.33;62.20;96698.28;20158700;29;20503;-55
2023/01/01 07:02:23;;;;;;;2.60;2.40;;;;;;;19.32;62.33;96691.25;20157583;29;20495;-58
2023/01/01 07:12:21;;;;;;;2.60;1.90;;;;;;;19.29;61.96;96694.53;20156152;29;20231;-54
2023/01/01 07:22:21;;;;;;;4.43;1.90;;;;;;;19.31;62.60;96692.34;20156383;29;20220;-56
2023/01/01 07:32:18;;;;;;;3.27;1.97;;;;;;;19.31;62.14;96698.56;20155519;29;20217;-57
2023/01/01 07:42:18;;;;;;;5.23;2.50;;;;;;;18.95;57.76;96716.28;20153943;29;20225;-52
2023/01/01 07:52:16;;;;;;;5.30;2.60;;;;;;;18.74;57.71;96731.88;20137262;29;20233;-50
2023/01/01 08:02:15;;;;;;;4.67;2.90;;;;;;;19.07;57.48;96768.13;20151840;29;20372;-47
2023/01/01 08:12:13;;;;;;;2.83;2.43;;;;;;;19.18;57.58;96777.75;20152727;29;20224;-52
2023/01/01 08:22:15;;;;;;;2.97;2.53;;;;;;;19.24;58.16;96775.78;20154271;29;20292;-51
2023/01/01 08:32:14;;;;;;;5.10;2.87;;;;;;;19.29;58.47;96783.88;20156529;29;20212;-49
2023/01/01 08:42:13;;;;;;;3.33;2.27;;;;;;;19.45;58.96;96794.31;20148925;29;20531;-51
2023/01/01 08:52:11;;;;;;;2.73;2.30;;;;;;;19.61;58.52;96796.84;20148855;29;20235;-49
2023/01/01 09:02:11;;;;;;;4.90;2.57;;;;;;;19.66;58.76;96799.53;20132004;29;20280;-51
2023/01/01 09:12:14;;;;;;;6.20;2.90;;;;;;;19.74;58.56;96796.19;20137490;29;20266;-49
2023/01/01 09:22:14;;;;;;;4.60;2.53;;;;;;;19.67;59.25;96791.09;20161657;29;20224;-54
2023/01/01 09:32:12;;;;;;;6.17;2.63;;;;;;;19.67;59.25;96798.41;20172999;29;20220;-51
2023/01/01 09:42:26;;;;;;;5.37;2.80;;;;;;;19.67;59.77;96803.81;20221744;29;20298;-51
2023/01/01 09:52:35;;;;;;;3.33;2.43;;;;;;;19.76;60.05;96802.91;20230168;29;20505;-53
2023/01/01 10:02:47;;;;;;;5.10;3.03;;;;;;;19.87;60.32;96811.75;20162721;29;20398;-48
2023/01/01 10:12:56;;;;;;;3.87;2.90;;;;;;;19.90;59.99;96803.84;20159596;29;20224;-53
2023/01/01 10:23:03;;;;;;;6.00;2.70;;;;;;;19.89;60.48;96807.66;20153938;29;20220;-46
2023/01/01 10:33:01;;;;;;;3.73;2.40;;;;;;;19.92;60.25;96804.38;20134314;29;20397;-50
2023/01/01 10:43:02;;;;;;;4.33;2.53;;;;;;;19.99;61.08;96796.69;20138492;29;20235;-54
2023/01/01 10:53:00;;;;;;;4.00;2.40;;;;;;;20.02;60.92;96795.31;20155153;29;20520;-52
2023/01/01 11:03:18;;;;;;;4.27;2.53;;;;;;;20.02;60.83;96787.19;20156308;29;20232;-55
2023/01/01 11:13:19;;;;;;;5.17;2.27;;;;;;;20.13;61.14;96777.81;20155210;29;20296;-52
2023/01/01 11:23:27;;;;;;;6.13;2.37;;;;;;;20.32;61.28;96792.22;20154527;29;20232;-56
2023/01/01 11:33:26;;;;;;;7.73;3.37;;;;;;;20.37;61.88;96765.03;20154094;29;20260;-53
2023/01/01 11:43:27;;;;;;;17.70;6.50;;;;;;;20.30;61.66;96742.91;20155722;29;20292;-56
2023/01/01 11:53:29;;;;;;;15.37;5.10;;;;;;;20.26;61.03;96724.78;20154507;29;20236;-56
2023/01/01 12:03:35;;;;;;;14.47;4.33;;;;;;;20.22;60.53;96710.16;20151055;29;20231;-56
2023/01/01 12:13:38;;;;;;;11.97;4.63;;;;;;;20.21;61.06;96712.09;20150828;29;20296;-55
2023/01/01 12:23:37;;;;;;;11.70;4.60;;;;;;;20.17;61.91;96710.25;20133971;29;20225;-57
2023/01/01 12:33:57;;;;;;;9.07;4.10;;;;;;;20.13;62.22;96687.53;20149733;29;20240;-58
2023/01/01 12:44:03;;;;;;;10.70;4.60;;;;;;;20.03;61.94;96683.06;20149424;29;20228;-57
2023/01/01 12:54:23;;;;;;;7.50;3.83;;;;;;;19.99;62.35;96688.28;20149122;29;20272;-58
2023/01/01 13:04:23;;;;;;;9.20;5.37;;;;;;;19.96;62.43;96683.44;20150968;29;20276;-57
2023/01/01 13:14:21;;;;;;;10.13;4.30;;;;;;;19.94;61.84;96665.84;20165003;29;20299;-57
2023/01/01 13:24:22;;;;;;;7.43;3.80;;;;;;;19.92;61.93;96668.84;20163492;29;20221;-59
2023/01/01 13:34:39;;;;;;;9.33;4.57;;;;;;;19.90;62.60;96665.63;20162835;29;20278;-56
2023/01/01 13:44:38;;;;;;;8.20;3.70;;;;;;;19.89;62.05;96650.47;20161720;29;20253;-59
2023/01/01 13:55:15;;;;;;;10.40;4.30;;;;;;;19.89;62.41;96633.41;20160820;29;20377;-59
2023/01/01 14:05:18;;;;;;;10.20;4.43;;;;;;;19.86;62.50;96632.09;20127026;23;20247;-60
2023/01/01 14:15:23;;;;;;;6.43;3.70;;;;;;;19.85;62.41;96640.50;20159406;29;20220;-59
2023/01/01 14:25:28;;;;;;;8.10;3.87;;;;;;;19.83;62.23;96656.25;20142588;29;20236;-60
2023/01/01 14:35:27;;;;;;;7.47;3.67;;;;;;;19.82;61.95;96650.00;20141913;29;20224;-59
2023/01/01 14:45:26;;;;;;;7.47;3.57;;;;;;;19.81;62.33;96647.63;20156457;29;20253;-59
2023/01/01 14:55:27;;;;;;;5.30;3.70;;;;;;;19.78;62.54;96646.31;20156749;29;20233;-60
2023/01/01 15:05:32;;;;;;;5.50;3.33;;;;;;;19.77;62.91;96639.25;20155997;29;20239;-61
2023/01/01 15:15:39;;;;;;;8.33;3.93;;;;;;;19.75;62.27;96652.31;20139132;29;20307;-60
2023/01/01 15:25:42;;;;;;;5.17;3.00;;;;;;;19.73;62.47;96634.69;20137176;29;20524;-60
2023/01/01 15:35:40;;;;;;;7.33;3.80;;;;;;;19.71;62.71;96645.84;20136923;29;20224;-60
2023/01/01 15:45:41;;;;;;;6.47;2.90;;;;;;;19.70;62.26;96644.22;20153006;29;20229;-60
2023/01/01 15:55:44;;;;;;;4.90;3.23;;;;;;;19.69;62.69;96639.91;20152396;29;20228;-60
2023/01/01 16:05:49;;;;;;;4.47;3.10;;;;;;;19.68;62.95;96632.06;20151691;29;20315;-59
2023/01/01 16:15:51;;;;;;;8.40;3.53;;;;;;;19.66;62.54;96629.66;20134669;29;20224;-59
2023/01/01 16:25:52;;;;;;;4.87;3.10;;;;;;;19.65;62.91;96617.22;20135632;29;20237;-59
2023/01/01 16:35:50;;;;;;;4.87;3.20;;;;;;;19.64;62.65;96617.50;20149694;29;20216;-59
2023/01/01 16:45:52;;;;;;;4.20;3.20;;;;;;;19.63;62.45;96616.69;20148671;29;20358;-59
2023/01/01 16:55:51;;;;;;;5.53;2.77;;;;;;;19.64;62.67;96614.78;20148724;29;20235;-59
2023/01/01 17:05:51;;;;;;;6.10;3.60;;;;;;;19.63;61.85;96594.22;20149871;29;20235;-59
2023/01/01 17:15:55;;;;;;;6.30;3.50;;;;;;;19.64;62.40;96587.69;20153935;29;20797;-57
2023/01/01 17:25:54;;;;;;;8.53;3.13;;;;;;;19.74;61.78;96585.66;20147168;29;20731;-60
2023/01/01 17:35:54;;;;;;;11.53;3.27;;;;;;;19.80;62.02;96598.03;20136205;29;20252;-60
2023/01/01 17:45:53;;;;;;;3.97;2.60;;;;;;;20.03;62.52;96589.00;20129596;29;20395;-57
2023/01/01 17:55:55;;;;;;;5.97;2.97;;;;;;;20.18;62.26;96585.25;20156336;29;20228;-62
2023/01/01 18:05:56;;;;;;;7.80;3.23;;;;;;;20.23;61.93;96581.66;20159382;29;20235;-60
2023/01/01 18:15:59;;;;;;;4.73;2.77;;;;;;;20.21;62.25;96583.84;20159505;29;20599;-59
2023/01/01 18:26:01;;;;;;;6.33;2.70;;;;;;;20.25;62.68;96577.53;20159663;29;20232;-60
2023/01/01 18:36:02;;;;;;;6.47;2.70;;;;;;;20.19;61.87;96589.56;20142417;29;20228;-58
2023/01/01 18:46:02;;;;;;;5.87;2.80;;;;;;;20.15;62.24;96580.41;20157928;29;20232;-59
2023/01/01 18:56:09;;;;;;;4.67;2.90;;;;;;;20.13;62.78;96577.19;20157191;29;20208;-62
2023/01/01 19:06:23;;;;;;;5.30;2.60;;;;;;;20.12;62.26;96580.22;20155034;29;20236;-61
2023/01/01 19:16:27;;;;;;;3.67;2.30;;;;;;;20.08;62.91;96550.16;20161081;29;20444;-62
2023/01/01 19:26:33;;;;;;;4.03;2.60;;;;;;;20.09;62.63;96543.63;20154891;29;20284;-61
2023/01/01 19:36:33;;;;;;;2.97;2.47;;;;;;;20.15;62.95;96547.88;20153750;29;20374;-60
2023/01/01 19:46:32;;;;;;;3.93;2.90;;;;;;;20.18;62.45;96541.06;20161235;29;20232;-63
2023/01/01 19:56:30;;;;;;;3.23;2.17;;;;;;;20.20;63.32;96536.13;20151657;29;20285;-60
2023/01/01 20:06:30;;;;;;;3.93;2.70;;;;;;;20.20;62.58;96520.69;20151397;29;20221;-57
2023/01/01 20:16:28;;;;;;;3.30;2.23;;;;;;;20.18;62.81;96513.97;20150455;29;20217;-59
2023/01/01 20:26:30;;;;;;;3.77;2.33;;;;;;;20.18;62.45;96517.47;20150337;29;20229;-59
2023/01/01 20:46:46;;;;;;;3.93;2.40;;;;;;;20.09;62.48;96524.66;20149055;29;20296;-57
2023/01/01 20:56:45;;;;;;;3.73;2.50;;;;;;;20.06;62.51;96538.81;20148984;29;20227;-56
2023/01/01 21:06:47;;;;;;;3.43;2.30;;;;;;;20.07;63.12;96529.56;20148491;29;20296;-57
2023/01/01 21:16:45;;;;;;;3.23;2.20;;;;;;;20.09;62.47;96527.38;20148573;29;20516;-57
2023/01/01 21:26:45;;;;;;;4.47;2.30;;;;;;;20.11;62.75;96541.44;20139352;29;20224;-53
2023/01/01 21:36:43;;;;;;;3.27;2.20;;;;;;;20.12;62.74;96543.03;20086406;29;20221;-55
2023/01/01 21:46:49;;;;;;;2.63;2.03;;;;;;;20.13;62.57;96541.13;20085546;29;20225;-55
2023/01/01 21:56:56;;;;;;;5.33;2.80;;;;;;;20.12;62.71;96536.84;20085112;29;20221;-54
